Time;durP1;ratioP1;P1;durP2;ratioP2;P2;SDS_P1;SDS_P2;PMS_P1;PMS_P2;Temp;Humidity;BMP_temperature;BMP_pressure;BME280_temperature;BME280_humidity;BME280_pressure;Samples;Min_cycle;Max_cycle;Signal;HPM_P1;HPM_P2
2022/11/19 00:01:34;;;;;;;36.77;19.57;;;;;;;10.07;100.00;98623.61;123275;1105;104253;-77
2022/11/19 00:04:08;;;;;;;38.05;20.10;;;;;;;10.19;100.00;98623.70;123166;1105;104399;-78
2022/11/19 00:06:39;;;;;;;35.80;19.63;;;;;;;10.32;100.00;98623.78;123246;1105;104268;-83
2022/11/19 00:09:14;;;;;;;36.00;17.93;;;;;;;10.40;100.00;98620.36;123188;1105;104373;-77
2022/11/19 00:14:34;;;;;;;35.23;19.50;;;;;;;10.64;100.00;98615.25;123427;1104;104360;-77
2022/11/19 00:17:05;;;;;;;35.40;18.20;;;;;;;10.75;100.00;98617.07;123376;1105;105450;-80
2022/11/19 00:19:36;;;;;;;35.23;18.53;;;;;;;10.86;100.00;98616.22;123524;1105;104214;-78
2022/11/19 00:22:08;;;;;;;37.67;18.63;;;;;;;10.92;100.00;98618.88;123497;1105;104271;-78
2022/11/19 00:24:39;;;;;;;39.33;20.13;;;;;;;11.06;100.00;98618.93;123529;1105;104294;-79
2022/11/19 00:27:10;;;;;;;38.90;20.60;;;;;;;11.13;100.00;98616.33;123491;1105;104265;-78
2022/11/19 00:29:41;;;;;;;39.25;19.20;;;;;;;11.22;100.00;98617.22;123377;1105;104341;-79
2022/11/19 00:32:13;;;;;;;43.35;21.90;;;;;;;11.26;100.00;98621.63;123291;1105;104703;-79
2022/11/19 00:34:44;;;;;;;35.87;19.53;;;;;;;11.28;100.00;98628.64;123239;1105;104329;-79
2022/11/19 00:37:15;;;;;;;35.03;20.60;;;;;;;11.32;100.00;98622.51;123275;1105;104284;-78
2022/11/19 00:39:46;;;;;;;40.05;22.50;;;;;;;11.37;100.00;98624.28;123271;1105;104287;-79
2022/11/19 00:42:18;;;;;;;39.65;22.70;;;;;;;11.39;100.00;98619.89;123319;1105;104376;-79
2022/11/19 00:44:49;;;;;;;44.90;24.00;;;;;;;11.41;100.00;98637.42;123184;1105;104953;-78
2022/11/19 00:47:20;;;;;;;41.63;21.77;;;;;;;11.41;100.00;98631.30;123341;1105;104741;-78
2022/11/19 00:49:51;;;;;;;44.90;24.27;;;;;;;11.43;100.00;98625.16;123436;1105;104206;-81
2022/11/19 00:52:22;;;;;;;42.37;25.10;;;;;;;11.46;100.00;98633.05;123340;1105;104402;-79
2022/11/19 00:54:54;;;;;;;42.77;24.30;;;;;;;11.47;100.00;98629.56;123506;1105;104390;-78
2022/11/19 00:57:25;;;;;;;42.03;23.87;;;;;;;11.49;100.00;98630.42;123462;1105;104370;-79
2022/11/19 00:59:56;;;;;;;41.93;25.33;;;;;;;11.53;100.00;98630.44;123393;1106;110952;-80
2022/11/19 01:02:27;;;;;;;45.17;26.77;;;;;;;11.55;100.00;98631.34;123419;1105;104256;-79
2022/11/19 01:04:58;;;;;;;45.30;26.27;;;;;;;11.56;100.00;98618.20;123298;1105;104417;-79
2022/11/19 01:07:29;;;;;;;46.60;27.63;;;;;;;11.58;100.00;98618.20;123449;1104;104281;-79
2022/11/19 01:10:00;;;;;;;44.87;26.87;;;;;;;11.59;100.00;98617.31;123426;1105;104409;-79
2022/11/19 01:13:33;;;;;;;44.90;27.30;;;;;;;11.60;100.00;98611.20;123338;1105;104274;-79
2022/11/19 01:15:22;;;;;;;44.73;25.53;;;;;;;11.63;100.00;98614.69;123189;1106;104306;-81
2022/11/19 01:17:53;;;;;;;50.57;29.67;;;;;;;11.65;100.00;98617.32;123365;1105;104271;-79
2022/11/19 01:20:25;;;;;;;47.83;27.23;;;;;;;11.69;100.00;98619.09;123386;1105;106527;-79
2022/11/19 01:22:56;;;;;;;47.43;29.03;;;;;;;11.71;100.00;98621.72;123438;1105;104344;-81
2022/11/19 01:25:27;;;;;;;49.87;29.67;;;;;;;11.69;100.00;98635.72;123473;1105;104306;-81
2022/11/19 01:27:58;;;;;;;46.93;28.47;;;;;;;11.67;100.00;98623.44;123462;1105;104238;-79
2022/11/19 01:30:29;;;;;;;45.67;28.33;;;;;;;11.65;100.00;98633.95;123400;1105;119105;-80
2022/11/19 01:33:03;;;;;;;47.63;28.90;;;;;;;11.63;100.00;98637.47;123487;1105;104367;-77
2022/11/19 01:35:34;;;;;;;47.10;28.53;;;;;;;11.63;100.00;98653.23;123361;1105;104341;-78
2022/11/19 01:38:06;;;;;;;48.50;29.70;;;;;;;11.60;100.00;98661.11;123432;1105;104300;-79
2022/11/19 01:40:43;;;;;;;51.40;29.90;;;;;;;11.57;100.00;98658.47;123493;1105;104303;-78
2022/11/19 01:43:15;;;;;;;49.53;29.57;;;;;;;11.56;100.00;98651.45;123431;1105;104242;-80
2022/11/19 01:45:48;;;;;;;49.97;28.33;;;;;;;11.54;100.00;98663.72;123366;1105;104361;-82
2022/11/19 01:48:23;;;;;;;50.80;28.33;;;;;;;11.53;100.00;98651.45;123392;1105;104363;-77
2022/11/19 01:50:59;;;;;;;49.50;28.23;;;;;;;11.51;100.00;98657.59;123256;1105;111970;-77
2022/11/19 01:53:33;;;;;;;44.97;26.47;;;;;;;11.48;100.00;98660.22;123494;1105;104242;-77
2022/11/19 01:56:07;;;;;;;41.77;25.27;;;;;;;11.46;100.00;98661.94;123519;1105;104295;-79
2022/11/19 01:58:42;;;;;;;43.67;25.33;;;;;;;11.44;100.00;98658.44;123535;1105;104207;-79
2022/11/19 02:01:13;;;;;;;40.90;23.20;;;;;;;11.42;100.00;98662.83;123733;1105;104246;-79
2022/11/19 02:03:45;;;;;;;37.80;23.07;;;;;;;11.40;100.00;98661.92;123472;1105;104322;-79
2022/11/19 02:06:16;;;;;;;35.93;21.00;;;;;;;11.38;100.00;98674.17;123483;1105;104303;-77
2022/11/19 02:08:51;;;;;;;25.53;14.07;;;;;;;11.34;100.00;98688.16;123876;1105;104270;-79
2022/11/19 02:12:07;;;;;;;23.07;12.03;;;;;;;11.21;100.00;98702.99;124062;1105;104184;-77
2022/11/19 02:14:52;;;;;;;20.15;9.60;;;;;;;11.00;100.00;98689.77;124182;1105;104395;-78
2022/11/19 02:17:35;;;;;;;18.77;8.90;;;;;;;10.87;100.00;98696.70;123941;1105;104332;-78
2022/11/19 02:20:38;;;;;;;19.70;9.65;;;;;;;10.73;100.00;98704.48;124324;1105;104175;-79
2022/11/19 02:23:31;;;;;;;19.70;9.80;;;;;;;10.57;100.00;98727.13;124059;1105;104268;-78
2022/11/19 02:26:23;;;;;;;17.83;8.70;;;;;;;10.39;100.00;98741.86;123906;1106;104345;-79
2022/11/19 02:28:59;;;;;;;16.60;7.83;;;;;;;10.21;100.00;98760.02;123671;1105;104322;-77
2022/11/19 02:31:39;;;;;;;14.60;7.00;;;;;;;10.00;100.00;98751.09;123750;1105;104210;-77
2022/11/19 02:34:14;;;;;;;15.93;6.83;;;;;;;9.77;100.00;98755.18;123645;1105;104252;-77
2022/11/19 02:36:54;;;;;;;15.67;6.80;;;;;;;9.56;100.00;98775.03;123690;1105;104354;-81
2022/11/19 02:39:30;;;;;;;17.07;7.37;;;;;;;9.40;100.00;98780.95;123738;1105;104300;-79
2022/11/19 02:42:08;;;;;;;15.63;6.80;;;;;;;9.26;100.00;98814.80;123667;1105;104252;-77
2022/11/19 02:45:01;;;;;;;13.90;6.90;;;;;;;9.14;100.00;98802.41;123343;1105;104382;-78
2022/11/19 02:47:39;;;;;;;17.40;7.10;;;;;;;9.08;100.00;98815.40;123503;1105;104223;-79
2022/11/19 02:50:15;;;;;;;17.55;7.00;;;;;;;9.00;100.00;98834.47;123364;1105;104328;-78
2022/11/19 02:52:47;;;;;;;17.23;7.77;;;;;;;8.95;100.00;98849.22;123640;1105;104361;-77
2022/11/19 02:55:21;;;;;;;16.10;7.57;;;;;;;8.91;100.00;98849.15;123761;1105;104469;-80
2022/11/19 02:57:57;;;;;;;18.52;8.33;;;;;;;8.87;100.00;98858.70;123771;1105;104323;-80
2022/11/19 03:06:26;;;;;;;19.77;8.80;;;;;;;8.83;100.00;98888.26;123266;1105;104277;-79
2022/11/19 03:08:57;;;;;;;20.77;9.23;;;;;;;8.82;100.00;98889.13;123557;1105;104434;-78
2022/11/19 03:11:31;;;;;;;22.20;9.67;;;;;;;8.83;100.00;98910.92;123512;1105;104255;-76
2022/11/19 03:17:06;;;;;;;22.03;9.57;;;;;;;8.80;100.00;98922.20;123697;1105;104303;-79
2022/11/19 03:19:43;;;;;;;21.77;9.60;;;;;;;8.77;100.00;98920.44;123691;1105;104306;-78
2022/11/19 03:22:21;;;;;;;18.13;8.23;;;;;;;8.75;100.00;98939.56;123895;1105;104255;-83
2022/11/19 03:24:58;;;;;;;20.00;8.80;;;;;;;8.71;100.00;98950.81;123670;1105;104345;-76
2022/11/19 03:27:36;;;;;;;17.70;7.53;;;;;;;8.68;100.00;98950.75;123712;1105;104246;-77
2022/11/19 03:30:11;;;;;;;18.15;7.85;;;;;;;8.62;100.00;98957.64;123460;1105;104191;-78
2022/11/19 03:32:48;;;;;;;18.57;8.07;;;;;;;8.61;100.00;98966.33;123689;1105;102121;-77
2022/11/19 03:35:27;;;;;;;17.87;7.17;;;;;;;8.60;100.00;98985.50;123569;1105;104380;-77
2022/11/19 03:38:03;;;;;;;15.10;7.13;;;;;;;8.59;100.00;98994.19;123462;1105;104296;-76
2022/11/19 03:40:35;;;;;;;16.30;7.20;;;;;;;8.62;100.00;99016.91;123513;1104;104248;-78
2022/11/19 03:43:14;;;;;;;16.63;6.90;;;;;;;8.61;100.00;99021.23;123607;1104;104383;-78
2022/11/19 03:45:51;;;;;;;18.47;7.33;;;;;;;8.59;100.00;99035.15;123461;1105;104361;-78
2022/11/19 03:48:27;;;;;;;16.07;6.90;;;;;;;8.53;100.00;99028.05;123639;1105;104288;-78
2022/11/19 03:51:04;;;;;;;13.67;6.10;;;;;;;8.46;100.00;99031.38;123589;1105;104290;-78
2022/11/19 03:53:35;;;;;;;14.90;6.27;;;;;;;8.40;99.93;99041.70;123595;1105;104338;-78
2022/11/19 03:56:10;;;;;;;13.97;5.73;;;;;;;8.29;99.66;99049.31;123487;1105;104360;-80
2022/11/19 03:58:44;;;;;;;11.80;5.33;;;;;;;8.18;99.32;99064.76;123767;1105;104306;-80
2022/11/19 04:01:16;;;;;;;13.05;5.12;;;;;;;8.04;99.49;99073.98;123747;1105;102099;-81
2022/11/19 04:06:32;;;;;;;9.45;4.30;;;;;;;7.84;99.17;99100.54;123931;1105;104380;-78
2022/11/19 04:09:03;;;;;;;10.97;4.20;;;;;;;7.76;98.76;99106.41;123870;1105;104371;-79
2022/11/19 04:11:34;;;;;;;9.23;4.00;;;;;;;7.61;97.84;99099.10;123576;1104;104341;-78
2022/11/19 04:14:05;;;;;;;7.93;4.30;;;;;;;7.55;98.35;99105.91;123434;1105;104258;-78
2022/11/19 04:16:37;;;;;;;9.73;4.70;;;;;;;7.47;98.15;99115.28;123529;1105;104258;-78
2022/11/19 04:19:08;;;;;;;9.10;5.00;;;;;;;7.40;98.14;99121.17;123483;1105;104383;-78
2022/11/19 04:21:39;;;;;;;9.53;4.60;;;;;;;7.31;98.25;99134.88;123521;1105;104523;-79
2022/11/19 04:24:11;;;;;;;7.17;4.20;;;;;;;7.21;97.80;99148.50;123318;1105;105694;-77
2022/11/19 04:26:43;;;;;;;7.83;4.10;;;;;;;7.11;97.74;99162.16;123415;1105;104329;-79
2022/11/19 04:29:14;;;;;;;11.63;5.23;;;;;;;7.01;98.25;99158.38;123401;1105;104246;-80
2022/11/19 04:31:45;;;;;;;10.67;4.63;;;;;;;6.97;97.69;99165.24;123413;1105;104367;-78
2022/11/19 04:34:16;;;;;;;8.73;4.40;;;;;;;6.91;97.97;99185.05;123222;1106;104258;-79
2022/11/19 04:36:47;;;;;;;9.23;4.70;;;;;;;6.87;98.00;99189.27;123242;1105;104364;-78
2022/11/19 04:39:18;;;;;;;8.80;5.10;;;;;;;6.82;97.84;99201.30;123534;1105;104188;-79
2022/11/19 04:41:49;;;;;;;10.63;5.00;;;;;;;6.79;98.17;99204.72;123278;1105;104258;-78
2022/11/19 04:44:21;;;;;;;9.70;5.17;;;;;;;6.75;98.01;99205.45;123312;1105;105623;-77
2022/11/19 04:46:52;;;;;;;11.27;5.30;;;;;;;6.72;97.46;99220.12;123327;1105;104391;-78
2022/11/19 04:49:23;;;;;;;11.63;4.70;;;;;;;6.66;97.44;99218.20;123398;1105;104431;-76
2022/11/19 04:51:54;;;;;;;10.37;4.80;;;;;;;6.60;97.19;99221.50;123567;1105;104264;-77
2022/11/19 04:54:25;;;;;;;11.10;4.83;;;;;;;6.53;96.61;99218.65;123641;1105;104277;-78
2022/11/19 04:56:56;;;;;;;8.70;4.67;;;;;;;6.47;96.47;99220.23;123451;1105;104274;-78
2022/11/19 04:59:27;;;;;;;9.13;4.80;;;;;;;6.42;96.77;99224.43;123512;1105;104386;-77
2022/11/19 05:01:59;;;;;;;11.00;4.90;;;;;;;6.38;96.73;99224.28;123531;1105;102035;-75
2022/11/19 05:04:30;;;;;;;8.97;4.57;;;;;;;6.34;97.04;99245.85;123456;1105;104277;-76
2022/11/19 05:07:03;;;;;;;9.70;4.70;;;;;;;6.30;96.64;99258.78;123406;1105;104334;-79
2022/11/19 05:09:34;;;;;;;9.65;4.75;;;;;;;6.25;96.86;99260.36;123325;1105;104216;-78
2022/11/19 05:12:07;;;;;;;11.57;4.93;;;;;;;6.21;97.05;99271.50;123409;1105;104322;-78
2022/11/19 05:14:38;;;;;;;9.63;4.90;;;;;;;6.18;96.91;99291.36;123367;1105;104197;-78
2022/11/19 05:17:09;;;;;;;10.57;4.80;;;;;;;6.14;96.74;99299.89;123429;1105;104214;-78
2022/11/19 05:19:40;;;;;;;9.67;4.60;;;;;;;6.06;96.77;99329.18;123350;1104;104290;-78
2022/11/19 05:22:11;;;;;;;7.70;4.30;;;;;;;6.01;96.50;99335.05;123486;1105;104366;-78
2022/11/19 05:24:42;;;;;;;8.85;4.45;;;;;;;5.95;96.26;99343.48;123342;1105;104335;-79
2022/11/19 05:27:13;;;;;;;8.27;4.13;;;;;;;5.91;96.18;99355.52;123360;1105;104312;-78
2022/11/19 05:29:45;;;;;;;8.80;3.87;;;;;;;5.86;96.14;99351.88;123501;1105;104274;-77
2022/11/19 05:32:16;;;;;;;10.27;4.17;;;;;;;5.83;95.41;99351.77;123551;1105;104270;-77
2022/11/19 05:34:47;;;;;;;8.43;3.43;;;;;;;5.78;95.67;99360.22;123506;1105;104230;-79
2022/11/19 05:37:18;;;;;;;6.27;3.40;;;;;;;5.73;95.19;99379.19;123455;1105;104274;-78
2022/11/19 05:39:49;;;;;;;6.37;3.60;;;;;;;5.70;95.29;99392.08;123340;1105;104310;-78
2022/11/19 05:42:20;;;;;;;5.87;3.40;;;;;;;5.65;95.04;99397.94;123346;1105;104245;-76
2022/11/19 05:44:51;;;;;;;6.37;3.40;;;;;;;5.58;95.00;99396.83;123228;1105;104344;-79
2022/11/19 05:47:22;;;;;;;5.07;3.13;;;;;;;5.55;95.34;99407.99;123214;1105;104217;-76
2022/11/19 05:49:53;;;;;;;8.73;3.80;;;;;;;5.52;94.75;99401.80;123113;1105;104319;-77
2022/11/19 05:52:25;;;;;;;5.97;3.50;;;;;;;5.49;94.70;99430.30;123144;1105;104370;-77
2022/11/19 05:54:56;;;;;;;5.90;3.50;;;;;;;5.47;95.14;99434.53;123028;1105;104322;-77
2022/11/19 05:57:27;;;;;;;7.25;3.85;;;;;;;5.40;94.74;99434.29;123259;1105;104287;-77
2022/11/19 05:59:58;;;;;;;6.20;3.50;;;;;;;5.33;94.87;99452.20;123162;1105;104268;-77
2022/11/19 06:02:29;;;;;;;6.00;3.47;;;;;;;5.24;93.40;99467.47;123263;1105;104351;-77
2022/11/19 06:05:00;;;;;;;5.13;3.40;;;;;;;5.13;93.62;99467.91;123377;1105;104808;-77
2022/11/19 06:07:32;;;;;;;6.50;3.13;;;;;;;5.11;94.31;99468.66;123191;1105;104364;-75
2022/11/19 06:10:03;;;;;;;5.03;3.27;;;;;;;5.10;94.26;99472.11;123200;1105;104364;-77
2022/11/19 06:12:35;;;;;;;3.87;2.90;;;;;;;5.08;93.62;99478.94;123189;1105;104383;-77
2022/11/19 06:15:09;;;;;;;5.23;2.90;;;;;;;5.06;94.30;99506.59;123034;1105;104290;-78
2022/11/19 06:17:40;;;;;;;6.77;3.33;;;;;;;5.02;94.31;99505.59;123090;1105;104348;-77
2022/11/19 06:20:12;;;;;;;7.27;2.70;;;;;;;4.97;93.49;99520.08;123096;1105;104338;-77
2022/11/19 06:22:43;;;;;;;3.20;2.40;;;;;;;4.91;91.97;99533.73;123193;1105;104293;-78
2022/11/19 06:25:14;;;;;;;5.25;2.80;;;;;;;4.85;91.92;99538.67;123147;1105;104294;-78
2022/11/19 06:27:45;;;;;;;3.40;2.50;;;;;;;4.76;91.54;99544.34;123127;1105;104315;-78
2022/11/19 06:30:17;;;;;;;4.67;2.60;;;;;;;4.72;91.90;99550.25;123165;1105;104287;-78
2022/11/19 06:32:48;;;;;;;4.90;2.60;;;;;;;4.65;90.38;99581.98;123130;1105;104323;-78
2022/11/19 06:35:19;;;;;;;2.43;2.23;;;;;;;4.59;90.46;99574.78;123093;1105;104443;-77
2022/11/19 06:37:50;;;;;;;3.23;2.50;;;;;;;4.53;90.74;99581.42;123236;1105;104318;-78
2022/11/19 06:40:21;;;;;;;3.80;2.30;;;;;;;4.46;90.96;99582.86;123314;1105;104261;-78
2022/11/19 06:42:52;;;;;;;4.03;2.50;;;;;;;4.44;91.53;99581.88;123374;1105;104261;-78
2022/11/19 06:45:23;;;;;;;3.15;2.30;;;;;;;4.42;90.82;99586.13;123086;1105;104305;-77
2022/11/19 06:47:55;;;;;;;3.50;2.40;;;;;;;4.31;88.90;99606.41;123142;1105;104290;-78
2022/11/19 06:50:26;;;;;;;4.80;2.70;;;;;;;4.28;90.00;99593.29;123187;1105;104367;-77
2022/11/19 06:52:57;;;;;;;6.10;2.80;;;;;;;4.26;90.98;99603.61;123102;1105;104243;-78
2022/11/19 06:55:28;;;;;;;5.77;3.40;;;;;;;4.23;89.84;99602.58;123045;1105;104261;-77
2022/11/19 06:58:06;;;;;;;6.20;3.40;;;;;;;4.23;90.86;99605.18;122998;1105;104305;-77
2022/11/19 07:00:37;;;;;;;7.93;3.70;;;;;;;4.20;89.67;99618.90;123197;1105;104300;-77
2022/11/19 07:03:08;;;;;;;6.93;3.57;;;;;;;4.18;90.36;99617.07;123118;1105;104262;-77
2022/11/19 07:05:39;;;;;;;8.10;4.30;;;;;;;4.17;90.42;99613.56;123005;1105;104389;-77
2022/11/19 07:08:10;;;;;;;7.53;4.17;;;;;;;4.20;90.14;99633.59;122941;1105;104357;-77
2022/11/19 07:10:42;;;;;;;7.45;4.00;;;;;;;4.20;90.50;99642.27;123090;1105;104251;-78
2022/11/19 07:13:13;;;;;;;7.50;4.20;;;;;;;4.20;90.78;99644.87;123011;1105;104367;-76
2022/11/19 07:15:44;;;;;;;9.37;4.30;;;;;;;4.22;89.83;99642.34;123111;1105;104351;-77
2022/11/19 07:18:15;;;;;;;8.03;4.37;;;;;;;4.22;89.35;99643.22;123231;1105;104331;-77
2022/11/19 07:20:48;;;;;;;8.63;4.17;;;;;;;4.22;89.64;99663.12;123022;1105;104370;-77
2022/11/19 07:23:19;;;;;;;7.10;4.40;;;;;;;4.21;89.97;99658.77;123163;1105;104296;-77
2022/11/19 07:25:50;;;;;;;9.07;4.63;;;;;;;4.25;89.93;99663.27;123022;1105;104267;-76
2022/11/19 07:28:21;;;;;;;7.93;4.17;;;;;;;4.26;88.69;99683.23;123071;1105;104242;-77
2022/11/19 07:30:52;;;;;;;8.30;4.50;;;;;;;4.26;88.83;99697.09;123037;1105;104261;-77
2022/11/19 07:33:24;;;;;;;8.97;4.87;;;;;;;4.24;89.22;99696.14;123039;1105;104417;-77
2022/11/19 07:35:55;;;;;;;10.47;4.73;;;;;;;4.31;89.25;99705.98;122981;1105;104366;-76
2022/11/19 07:38:26;;;;;;;8.40;5.10;;;;;;;4.35;89.57;99719.13;123107;1105;104370;-76
2022/11/19 07:40:58;;;;;;;11.30;4.97;;;;;;;4.37;88.64;99725.30;123279;1105;104297;-76
2022/11/19 07:43:29;;;;;;;9.30;4.70;;;;;;;4.38;89.12;99722.78;122903;1105;104418;-76
2022/11/19 07:46:05;;;;;;;8.47;4.83;;;;;;;4.37;87.29;99731.38;123094;1105;104240;-77
2022/11/19 07:48:36;;;;;;;10.00;4.63;;;;;;;4.30;86.43;99745.79;123185;1105;104297;-77
2022/11/19 07:51:07;;;;;;;12.33;5.33;;;;;;;4.22;86.73;99756.61;123122;1105;104277;-77
2022/11/19 07:53:42;;;;;;;9.37;5.13;;;;;;;4.27;87.84;99753.43;123065;1104;104315;-76
2022/11/19 07:56:15;;;;;;;11.10;5.60;;;;;;;4.29;87.20;99756.10;123195;1105;104411;-76
2022/11/19 07:58:47;;;;;;;11.77;5.27;;;;;;;4.31;87.57;99763.13;123205;1105;104415;-77
2022/11/19 08:01:20;;;;;;;12.43;5.77;;;;;;;4.39;86.65;99770.42;123067;1105;104237;-77
2022/11/19 08:03:52;;;;;;;12.60;5.57;;;;;;;4.47;86.80;99774.27;123034;1105;104270;-77
2022/11/19 08:06:24;;;;;;;13.40;6.43;;;;;;;4.50;86.96;99772.73;122864;1105;104306;-77
2022/11/19 08:08:56;;;;;;;15.20;6.27;;;;;;;4.52;85.84;99788.39;122968;1105;104415;-77
2022/11/19 08:11:28;;;;;;;16.00;7.10;;;;;;;4.54;86.35;99810.14;123045;1105;104306;-76
2022/11/19 08:14:00;;;;;;;16.37;7.27;;;;;;;4.59;86.22;99808.64;123215;1105;104666;-78
2022/11/19 08:19:23;;;;;;;13.33;6.80;;;;;;;4.57;85.31;99861.38;123090;1105;104370;-77
2022/11/19 08:21:54;;;;;;;14.90;7.40;;;;;;;4.62;86.80;99863.36;123093;1105;104524;-76
2022/11/19 08:24:25;;;;;;;15.03;7.23;;;;;;;4.71;86.85;99860.34;123098;1105;104368;-76
2022/11/19 08:26:56;;;;;;;16.05;7.85;;;;;;;4.86;87.12;99879.28;122965;1105;104374;-76
2022/11/19 08:29:27;;;;;;;14.47;7.00;;;;;;;4.98;87.16;99872.88;122926;1105;112110;-76
2022/11/19 08:31:59;;;;;;;17.03;8.10;;;;;;;5.15;86.89;99881.48;122992;1105;104287;-77
2022/11/19 08:34:33;;;;;;;15.27;7.73;;;;;;;5.29;86.58;99892.55;122973;1105;104396;-78
2022/11/19 08:37:04;;;;;;;15.38;7.22;;;;;;;5.36;82.66;99892.91;123067;1105;104245;-78
2022/11/19 08:39:35;;;;;;;15.23;7.87;;;;;;;5.43;83.96;99893.20;123120;1105;104290;-77
2022/11/19 08:44:57;;;;;;;18.27;8.60;;;;;;;5.52;82.00;99914.44;123107;1105;104268;-77
2022/11/19 08:47:28;;;;;;;20.17;9.63;;;;;;;5.46;82.62;99909.83;123021;1105;104326;-76
2022/11/19 08:49:59;;;;;;;17.73;8.30;;;;;;;5.36;82.48;99926.73;123026;1105;104380;-78
2022/11/19 08:52:30;;;;;;;18.83;8.97;;;;;;;5.33;82.56;99942.20;122898;1105;104268;-76
2022/11/19 08:55:01;;;;;;;16.63;7.93;;;;;;;5.30;81.81;99943.73;122883;1105;104269;-74
2022/11/19 08:57:32;;;;;;;16.47;8.63;;;;;;;5.19;82.75;99949.34;123018;1105;104344;-75
2022/11/19 09:00:04;;;;;;;18.67;8.97;;;;;;;5.21;82.12;99952.02;122913;1105;118504;-77
2022/11/19 09:02:35;;;;;;;18.33;9.30;;;;;;;5.33;82.55;99955.20;123007;1105;104371;-76
2022/11/19 09:05:07;;;;;;;20.37;9.90;;;;;;;5.51;82.95;99943.88;123103;1105;104261;-75
2022/11/19 09:07:38;;;;;;;19.30;9.30;;;;;;;5.62;81.21;99936.57;123095;1105;104242;-76
2022/11/19 09:10:11;;;;;;;18.67;9.60;;;;;;;5.70;81.31;99932.60;123045;1105;104348;-76
2022/11/19 09:12:42;;;;;;;18.30;9.50;;;;;;;5.68;80.70;99942.94;123086;1105;104378;-76
2022/11/19 09:15:13;;;;;;;22.93;11.37;;;;;;;5.62;79.93;99953.06;123076;1105;104338;-76
2022/11/19 09:17:45;;;;;;;26.20;12.80;;;;;;;5.57;80.42;99959.78;123087;1105;104271;-75
2022/11/19 09:20:16;;;;;;;20.67;10.43;;;;;;;5.50;80.74;99965.50;122967;1105;104360;-76
2022/11/19 09:22:47;;;;;;;19.80;10.00;;;;;;;5.41;79.13;99971.18;123086;1105;104296;-77
2022/11/19 09:25:19;;;;;;;18.93;9.60;;;;;;;5.33;79.37;99973.41;123237;1105;104340;-76
2022/11/19 09:27:50;;;;;;;20.40;10.15;;;;;;;5.23;80.11;99978.98;123119;1105;104329;-76
2022/11/19 09:30:21;;;;;;;20.17;10.57;;;;;;;5.21;79.30;99984.11;123076;1105;104258;-76
2022/11/19 09:32:53;;;;;;;19.60;9.87;;;;;;;5.20;79.77;99981.43;123028;1105;104395;-77
2022/11/19 09:35:24;;;;;;;19.90;10.60;;;;;;;5.23;80.16;99978.98;122999;1105;104216;-77
2022/11/19 09:37:55;;;;;;;23.07;9.90;;;;;;;5.17;77.98;100002.09;123141;1105;104302;-77
2022/11/19 09:40:26;;;;;;;20.63;9.83;;;;;;;5.11;79.29;100000.09;123181;1105;105703;-77
2022/11/19 09:43:06;;;;;;;18.97;10.00;;;;;;;5.06;78.45;100001.55;123063;1105;104264;-76
2022/11/19 09:45:53;;;;;;;21.27;10.37;;;;;;;5.12;79.29;100024.39;123040;1106;104274;-78
2022/11/19 09:48:34;;;;;;;18.70;8.70;;;;;;;5.15;77.35;100035.83;123054;1105;104398;-77
2022/11/19 09:51:09;;;;;;;17.90;9.40;;;;;;;5.11;77.21;100036.51;123429;1105;118863;-77
2022/11/19 09:53:46;;;;;;;18.80;9.17;;;;;;;5.02;76.85;100041.25;123280;1105;104361;-78
2022/11/19 09:56:23;;;;;;;18.87;9.50;;;;;;;4.98;77.42;100034.97;123052;1105;104271;-77
2022/11/19 09:58:57;;;;;;;21.00;10.10;;;;;;;5.02;77.10;100044.73;123133;1105;104667;-77
2022/11/19 10:01:31;;;;;;;20.70;9.68;;;;;;;5.04;77.70;100035.28;123253;1105;104357;-77
2022/11/19 10:04:01;;;;;;;;;;;;;;;5.00;76.61;100030.77;123380;1105;104259;-76
2022/11/19 10:06:43;;;;;;;19.97;9.17;;;;;;;4.98;77.14;100040.17;123150;1105;104453;-75
2022/11/19 10:09:41;;;;;;;19.57;9.67;;;;;;;4.99;77.94;100048.89;123062;1105;104331;-76
2022/11/19 10:12:30;;;;;;;20.40;10.10;;;;;;;5.12;77.07;100038.27;123261;1105;110860;-76
2022/11/19 10:15:21;;;;;;;21.30;9.87;;;;;;;5.05;75.96;100046.60;123276;1105;104216;-75
2022/11/19 10:18:05;;;;;;;21.20;9.67;;;;;;;5.02;76.94;100062.93;123444;1105;104329;-76
2022/11/19 10:20:56;;;;;;;19.70;9.87;;;;;;;5.02;77.18;100062.93;123115;1105;104242;-75
2022/11/19 10:23:45;;;;;;;21.53;10.20;;;;;;;5.07;76.71;100073.56;123183;1104;104290;-77
2022/11/19 10:26:34;;;;;;;19.43;9.37;;;;;;;5.14;76.56;100082.56;123126;1105;104274;-77
2022/11/19 10:29:13;;;;;;;19.70;9.90;;;;;;;5.23;77.46;100093.44;123054;1105;104241;-77
2022/11/19 10:31:48;;;;;;;18.00;8.50;;;;;;;5.25;75.01;100102.23;123169;1105;104409;-77
2022/11/19 10:34:26;;;;;;;17.13;8.67;;;;;;;5.18;75.16;100119.21;123128;1105;104354;-78
2022/11/19 10:37:02;;;;;;;20.07;9.67;;;;;;;5.22;76.62;100117.69;123045;1105;104370;-75
2022/11/19 10:39:40;;;;;;;17.97;9.20;;;;;;;5.34;76.92;100120.00;123070;1105;104233;-75
2022/11/19 10:42:21;;;;;;;17.27;8.93;;;;;;;5.42;76.74;100131.67;123032;1106;104291;-76
2022/11/19 10:44:55;;;;;;;15.97;7.83;;;;;;;5.42;74.79;100131.67;123127;1105;104325;-78
2022/11/19 10:47:34;;;;;;;19.00;9.00;;;;;;;5.35;75.49;100124.39;123156;1105;104290;-79
2022/11/19 10:50:07;;;;;;;17.55;8.40;;;;;;;5.32;75.68;100127.72;123093;1105;104371;-78
2022/11/19 10:52:43;;;;;;;16.20;8.13;;;;;;;5.30;75.55;100142.37;123150;1105;104290;-77
2022/11/19 10:55:23;;;;;;;17.07;8.53;;;;;;;5.27;76.00;100143.94;123090;1105;104351;-77
2022/11/19 10:58:12;;;;;;;20.43;9.83;;;;;;;5.27;76.98;100156.94;123014;1105;104258;-76
2022/11/19 11:00:44;;;;;;;18.70;9.37;;;;;;;5.28;76.67;100163.91;123065;1105;104347;-77
2022/11/19 11:03:22;;;;;;;19.07;8.80;;;;;;;5.28;76.29;100176.92;123200;1105;104261;-77
2022/11/19 11:06:00;;;;;;;19.17;9.73;;;;;;;5.28;77.15;100174.31;123122;1105;104348;-76
2022/11/19 11:08:32;;;;;;;17.97;9.20;;;;;;;5.31;76.49;100174.48;123103;1105;104245;-75
2022/11/19 11:11:03;;;;;;;22.43;10.17;;;;;;;5.33;75.68;100172.84;123081;1105;104322;-76
2022/11/19 11:16:44;;;;;;;19.33;9.73;;;;;;;5.32;76.43;100190.16;123096;1105;104689;-75
2022/11/19 11:19:19;;;;;;;19.87;9.97;;;;;;;5.40;75.58;100190.56;123227;1105;104293;-77
2022/11/19 11:21:57;;;;;;;19.20;9.40;;;;;;;5.46;75.53;100193.48;123239;1105;104332;-78
2022/11/19 11:24:36;;;;;;;18.17;9.27;;;;;;;5.51;75.64;100189.39;123093;1105;104382;-76
2022/11/19 11:27:25;;;;;;;19.45;9.40;;;;;;;5.54;75.50;100189.55;123108;1105;104409;-75
2022/11/19 11:30:15;;;;;;;20.77;9.93;;;;;;;5.54;74.91;100194.75;123096;1105;104845;-76
2022/11/19 11:32:46;;;;;;;18.50;9.33;;;;;;;5.51;75.53;100198.92;123063;1105;104306;-75
2022/11/19 11:35:32;;;;;;;20.60;10.20;;;;;;;5.51;75.84;100209.33;123071;1105;104670;-76
2022/11/19 11:38:07;;;;;;;18.40;9.13;;;;;;;5.49;75.83;100231.80;123019;1105;104421;-76
2022/11/19 11:40:38;;;;;;;19.13;9.53;;;;;;;5.53;76.06;100238.92;123004;1105;104316;-74
2022/11/19 11:43:18;;;;;;;19.20;9.07;;;;;;;5.57;76.09;100246.97;123016;1105;104727;-76
2022/11/19 11:45:58;;;;;;;17.80;9.70;;;;;;;5.58;76.13;100248.77;123063;1105;104332;-76
2022/11/19 11:48:34;;;;;;;19.83;9.27;;;;;;;5.62;76.40;100251.53;123055;1105;104265;-75
2022/11/19 11:51:06;;;;;;;19.13;10.13;;;;;;;5.66;75.87;100262.18;123124;1105;104265;-77
2022/11/19 11:53:37;;;;;;;17.23;8.83;;;;;;;5.65;74.46;100256.89;123045;1105;104382;-77
2022/11/19 11:56:11;;;;;;;18.80;9.65;;;;;;;5.58;74.87;100259.18;123082;1105;104315;-77
2022/11/19 11:58:42;;;;;;;17.80;8.93;;;;;;;5.53;75.49;100264.95;122969;1105;104593;-76
2022/11/19 12:01:17;;;;;;;17.23;9.33;;;;;;;5.50;76.09;100260.50;122923;1105;104322;-76
2022/11/19 12:03:56;;;;;;;19.10;9.73;;;;;;;5.52;75.67;100276.20;122946;1105;104379;-76
2022/11/19 12:06:32;;;;;;;19.43;9.27;;;;;;;5.53;75.88;100285.77;122873;1105;104261;-76